Time,TemperatureF,DewpointF,PressureIn,WindDirection,WindDirectionDegrees,WindSpeedMPH,WindSpeedGustMPH,Humidity,HourlyPrecipIn,Conditions,Clouds,dailyrainin,SoftwareType,DateUTC
2013-01-15 00:12:00,9.0,5.0,-100.00,North,0,0.0,1.0,82,0.00,,,-99.99,,2013-01-15 06:12:00,
2013-01-15 00:22:00,9.0,5.0,-100.00,North,0,0.0,1.0,82,0.00,,,-99.99,,2013-01-15 06:22:00,
2013-01-15 00:33:00,9.0,5.0,-100.00,North,0,0.0,1.0,82,0.00,,,-99.99,,2013-01-15 06:33:00,
2013-01-15 00:42:00,9.0,5.0,-100.00,North,0,0.0,1.0,82,0.00,,,-99.99,,2013-01-15 06:42:00,
2013-01-15 01:12:00,8.0,5.0,-100.00,South,185,0.0,2.0,85,0.00,,,-99.99,,2013-01-15 07:12:00,
2013-01-15 01:22:00,8.0,5.0,-100.00,South,185,0.0,2.0,85,0.00,,,-99.99,,2013-01-15 07:22:00,
2013-01-15 01:33:00,8.0,5.0,-100.00,South,185,0.0,2.0,85,0.00,,,-99.99,,2013-01-15 07:33:00,
2013-01-15 01:42:00,8.0,5.0,-100.00,South,185,0.0,2.0,85,0.00,,,-99.99,,2013-01-15 07:42:00,
2013-01-15 01:52:00,8.0,5.0,-100.00,South,185,0.0,2.0,85,0.00,,,-99.99,,2013-01-15 07:52:00,
2013-01-15 02:12:00,6.0,3.0,-100.00,North,5,1.0,1.0,87,0.00,,,-99.99,,2013-01-15 08:12:00,
2013-01-15 02:22:00,6.0,2.0,-100.00,North,0,0.0,1.0,87,0.00,,,-99.99,,2013-01-15 08:22:00,
2013-01-15 02:33:00,6.0,2.0,-100.00,North,0,0.0,1.0,87,0.00,,,-99.99,,2013-01-15 08:33:00,
2013-01-15 02:42:00,6.0,2.0,-100.00,North,0,0.0,1.0,87,0.00,,,-99.99,,2013-01-15 08:42:00,
2013-01-15 02:52:00,6.0,2.0,-100.00,North,0,0.0,1.0,87,0.00,,,-99.99,,2013-01-15 08:52:00,
2013-01-15 03:22:00,7.0,4.0,-100.00,SW,235,1.0,2.0,88,0.00,,,-99.99,,2013-01-15 09:22:00,
2013-01-15 03:33:00,7.0,4.0,-100.00,SW,235,1.0,2.0,88,0.00,,,-99.99,,2013-01-15 09:33:00,
2013-01-15 03:42:00,7.0,4.0,-100.00,SW,235,1.0,2.0,88,0.00,,,-99.99,,2013-01-15 09:42:00,
2013-01-15 03:52:00,7.0,4.0,-100.00,SW,235,1.0,2.0,88,0.00,,,-99.99,,2013-01-15 09:52:00,
2013-01-15 04:12:00,6.0,3.0,-100.00,SE,145,0.0,0.0,88,0.00,,,-99.99,,2013-01-15 10:12:00,
2013-01-15 04:22:00,6.0,3.0,-100.00,SE,145,0.0,0.0,88,0.00,,,-99.99,,2013-01-15 10:22:00,
2013-01-15 04:32:00,6.0,3.0,-100.00,SE,145,0.0,0.0,88,0.00,,,-99.99,,2013-01-15 10:32:00,
2013-01-15 04:42:00,6.0,3.0,-100.00,SE,145,0.0,0.0,88,0.00,,,-99.99,,2013-01-15 10:42:00,
2013-01-15 05:12:00,7.0,4.0,-100.00,SW,215,1.0,1.0,88,0.00,,,-99.99,,2013-01-15 11:12:00,
2013-01-15 05:22:00,7.0,4.0,-100.00,SW,215,1.0,1.0,88,0.00,,,-99.99,,2013-01-15 11:22:00,
2013-01-15 05:33:00,7.0,4.0,-100.00,SW,215,1.0,1.0,88,0.00,,,-99.99,,2013-01-15 11:33:00,
2013-01-15 05:42:00,7.0,4.0,-100.00,SW,215,1.0,1.0,88,0.00,,,-99.99,,2013-01-15 11:42:00,
2013-01-15 05:52:00,7.0,4.0,-100.00,SW,215,1.0,1.0,88,0.00,,,-99.99,,2013-01-15 11:52:00,
2013-01-15 05:53:00,8.0,6.0,-100.00,WSW,245,1.0,1.0,89,0.00,,,-99.99,,2013-01-15 11:53:00,
2013-01-15 06:12:00,8.0,6.0,-100.00,WSW,245,1.0,1.0,89,0.00,,,-99.99,,2013-01-15 12:12:00,
2013-01-15 06:22:00,8.0,6.0,-100.00,WSW,245,1.0,1.0,89,0.00,,,-99.99,,2013-01-15 12:22:00,
2013-01-15 06:33:00,8.0,6.0,-100.00,WSW,245,1.0,1.0,89,0.00,,,-99.99,,2013-01-15 12:33:00,
2013-01-15 06:42:00,8.0,6.0,-100.00,WSW,245,1.0,1.0,89,0.00,,,-99.99,,2013-01-15 12:42:00,
2013-01-15 07:23:00,9.0,6.0,-100.00,SW,235,1.0,2.0,89,0.00,,,-99.99,,2013-01-15 13:23:00,
2013-01-15 07:33:00,9.0,6.0,-100.00,SW,235,1.0,2.0,89,0.00,,,-99.99,,2013-01-15 13:33:00,
2013-01-15 07:43:00,9.0,6.0,-100.00,SW,235,1.0,2.0,89,0.00,,,-99.99,,2013-01-15 13:43:00,
2013-01-15 07:53:00,9.0,6.0,-100.00,SW,235,1.0,2.0,89,0.00,,,-99.99,,2013-01-15 13:53:00,
2013-01-15 08:52:00,13.0,10.0,-100.00,South,180,4.0,5.0,89,0.00,,,-99.99,,2013-01-15 14:52:00,
2013-01-15 09:12:00,13.0,10.0,-100.00,South,180,4.0,5.0,89,0.00,,,-99.99,,2013-01-15 15:12:00,
2013-01-15 09:23:00,13.0,10.0,-100.00,South,180,4.0,5.0,89,0.00,,,-99.99,,2013-01-15 15:23:00,
2013-01-15 09:33:00,13.0,10.0,-100.00,South,180,4.0,5.0,89,0.00,,,-99.99,,2013-01-15 15:33:00,
2013-01-15 09:43:00,13.0,10.0,-100.00,South,180,4.0,5.0,89,0.00,,,-99.99,,2013-01-15 15:43:00,
2013-01-15 09:50:00,18.0,13.0,-100.00,SW,215,6.0,10.0,82,0.00,,,-99.99,,2013-01-15 15:50:00,
2013-01-15 10:12:00,18.0,13.0,-100.00,SW,215,6.0,10.0,82,0.00,,,-99.99,,2013-01-15 16:12:00,
2013-01-15 10:22:00,18.0,13.0,-100.00,SW,215,6.0,10.0,82,0.00,,,-99.99,,2013-01-15 16:22:00,
2013-01-15 10:33:00,18.0,13.0,-100.00,SW,215,6.0,10.0,82,0.00,,,-99.99,,2013-01-15 16:33:00,
2013-01-15 10:42:00,18.0,13.0,-100.00,SW,215,6.0,10.0,82,0.00,,,-99.99,,2013-01-15 16:42:00,
2013-01-15 10:52:00,25.0,11.0,-100.00,SW,215,8.0,12.0,56,0.00,,,-99.99,,2013-01-15 16:52:00,
2013-01-15 11:12:00,25.0,11.0,-100.00,SW,215,8.0,12.0,56,0.00,,,-99.99,,2013-01-15 17:12:00,
2013-01-15 11:22:00,25.0,11.0,-100.00,SW,215,8.0,12.0,56,0.00,,,-99.99,,2013-01-15 17:22:00,
2013-01-15 11:33:00,25.0,11.0,-100.00,SW,215,8.0,12.0,56,0.00,,,-99.99,,2013-01-15 17:33:00,
2013-01-15 11:42:00,25.0,11.0,-100.00,SW,215,8.0,12.0,56,0.00,,,-99.99,,2013-01-15 17:42:00,
2013-01-15 12:13:00,28.0,7.0,-100.00,SSW,205,10.0,18.0,41,0.00,,,-99.99,,2013-01-15 18:13:00,
2013-01-15 12:23:00,28.0,7.0,-100.00,SSW,205,10.0,18.0,41,0.00,,,-99.99,,2013-01-15 18:23:00,
2013-01-15 12:33:00,28.0,7.0,-100.00,SSW,205,10.0,18.0,41,0.00,,,-99.99,,2013-01-15 18:33:00,
2013-01-15 12:43:00,28.0,7.0,-100.00,SSW,205,10.0,18.0,41,0.00,,,-99.99,,2013-01-15 18:43:00,
2013-01-15 12:53:00,28.0,7.0,-100.00,SSW,205,10.0,18.0,41,0.00,,,-99.99,,2013-01-15 18:53:00,
2013-01-15 13:12:00,29.0,6.0,-100.00,SSW,195,11.0,22.0,38,0.00,,,-99.99,,2013-01-15 19:12:00,
2013-01-15 13:23:00,29.0,6.0,-100.00,SW,235,9.0,20.0,37,0.00,,,-99.99,,2013-01-15 19:23:00,
2013-01-15 13:33:00,29.0,6.0,-100.00,SW,235,9.0,20.0,37,0.00,,,-99.99,,2013-01-15 19:33:00,
2013-01-15 13:42:00,29.0,6.0,-100.00,SW,235,9.0,20.0,37,0.00,,,-99.99,,2013-01-15 19:42:00,
2013-01-15 13:53:00,29.0,6.0,-100.00,SW,235,9.0,20.0,37,0.00,,,-99.99,,2013-01-15 19:53:00,
2013-01-15 14:12:00,29.0,6.0,-100.00,South,185,9.0,19.0,37,0.00,,,-99.99,,2013-01-15 20:12:00,
2013-01-15 14:23:00,29.0,6.0,-100.00,South,185,9.0,19.0,37,0.00,,,-99.99,,2013-01-15 20:23:00,
2013-01-15 14:33:00,29.0,6.0,-100.00,South,185,9.0,19.0,37,0.00,,,-99.99,,2013-01-15 20:33:00,
2013-01-15 14:43:00,29.0,6.0,-100.00,South,185,9.0,19.0,37,0.00,,,-99.99,,2013-01-15 20:43:00,
2013-01-15 14:52:00,29.0,6.0,-100.00,South,185,9.0,19.0,37,0.00,,,-99.99,,2013-01-15 20:52:00,
2013-01-15 15:13:00,30.0,7.0,-100.00,SSW,195,9.0,15.0,38,0.00,,,-99.99,,2013-01-15 21:13:00,
2013-01-15 15:23:00,30.0,6.0,-100.00,SW,215,7.0,17.0,36,0.00,,,-99.99,,2013-01-15 21:23:00,
2013-01-15 15:33:00,30.0,6.0,-100.00,SW,215,7.0,17.0,36,0.00,,,-99.99,,2013-01-15 21:33:00,
2013-01-15 15:43:00,30.0,6.0,-100.00,SW,215,7.0,17.0,36,0.00,,,-99.99,,2013-01-15 21:43:00,
2013-01-15 15:52:00,30.0,6.0,-100.00,SW,215,7.0,17.0,36,0.00,,,-99.99,,2013-01-15 21:52:00,
2013-01-15 16:12:00,29.0,6.0,-100.00,SSW,200,7.0,15.0,36,0.00,,,-99.99,,2013-01-15 22:12:00,
2013-01-15 16:23:00,29.0,6.0,-100.00,SSW,200,7.0,15.0,36,0.00,,,-99.99,,2013-01-15 22:23:00,
2013-01-15 16:33:00,29.0,6.0,-100.00,SSW,200,7.0,15.0,36,0.00,,,-99.99,,2013-01-15 22:33:00,
2013-01-15 16:43:00,29.0,6.0,-100.00,SSW,200,7.0,15.0,36,0.00,,,-99.99,,2013-01-15 22:43:00,
2013-01-15 16:52:00,29.0,6.0,-100.00,SSW,200,7.0,15.0,36,0.00,,,-99.99,,2013-01-15 22:52:00,
2013-01-15 16:53:00,27.0,6.0,-100.00,SSW,195,7.0,11.0,40,0.00,,,-99.99,,2013-01-15 22:53:00,
2013-01-15 17:13:00,27.0,6.0,-100.00,SSW,195,7.0,11.0,40,0.00,,,-99.99,,2013-01-15 23:13:00,
2013-01-15 17:22:00,27.0,6.0,-100.00,SSW,195,7.0,11.0,40,0.00,,,-99.99,,2013-01-15 23:22:00,
2013-01-15 17:33:00,27.0,6.0,-100.00,SSW,195,7.0,11.0,40,0.00,,,-99.99,,2013-01-15 23:33:00,
2013-01-15 17:43:00,27.0,6.0,-100.00,SSW,195,7.0,11.0,40,0.00,,,-99.99,,2013-01-15 23:43:00,
2013-01-15 18:12:00,26.0,7.0,-100.00,SSW,200,6.0,9.0,45,0.00,,,-99.99,,2013-01-16 00:12:00,
2013-01-15 18:22:00,26.0,7.0,-100.00,SSW,200,6.0,9.0,45,0.00,,,-99.99,,2013-01-16 00:22:00,
2013-01-15 18:33:00,26.0,7.0,-100.00,SSW,200,6.0,9.0,45,0.00,,,-99.99,,2013-01-16 00:33:00,
2013-01-15 18:43:00,26.0,7.0,-100.00,SSW,200,6.0,9.0,45,0.00,,,-99.99,,2013-01-16 00:43:00,
2013-01-15 18:52:00,26.0,7.0,-100.00,SSW,200,6.0,9.0,45,0.00,,,-99.99,,2013-01-16 00:52:00,
2013-01-15 19:22:00,25.0,8.0,-100.00,South,190,7.0,10.0,50,0.00,,,-99.99,,2013-01-16 01:22:00,
2013-01-15 19:33:00,25.0,8.0,-100.00,South,190,7.0,10.0,50,0.00,,,-99.99,,2013-01-16 01:33:00,
2013-01-15 19:42:00,25.0,8.0,-100.00,South,190,7.0,10.0,50,0.00,,,-99.99,,2013-01-16 01:42:00,
2013-01-15 19:52:00,25.0,8.0,-100.00,South,190,7.0,10.0,50,0.00,,,-99.99,,2013-01-16 01:52:00,
2013-01-15 20:22:00,23.0,9.0,-100.00,SSW,200,6.0,9.0,55,0.00,,,-99.99,,2013-01-16 02:22:00,
2013-01-15 20:32:00,23.0,9.0,-100.00,SSW,200,6.0,9.0,55,0.00,,,-99.99,,2013-01-16 02:32:00,
2013-01-15 20:42:00,23.0,9.0,-100.00,SSW,200,6.0,9.0,55,0.00,,,-99.99,,2013-01-16 02:42:00,
2013-01-15 20:52:00,23.0,9.0,-100.00,SSW,200,6.0,9.0,55,0.00,,,-99.99,,2013-01-16 02:52:00,
2013-01-15 21:52:00,21.0,11.0,-100.00,SSW,205,5.0,9.0,65,0.00,,,-99.99,,2013-01-16 03:52:00,
2013-01-15 22:12:00,21.0,11.0,-100.00,SSW,205,5.0,9.0,65,0.00,,,-99.99,,2013-01-16 04:12:00,
2013-01-15 22:22:00,21.0,11.0,-100.00,SSW,205,5.0,9.0,65,0.00,,,-99.99,,2013-01-16 04:22:00,
2013-01-15 22:33:00,21.0,11.0,-100.00,SSW,205,5.0,9.0,65,0.00,,,-99.99,,2013-01-16 04:33:00,
2013-01-15 22:42:00,21.0,11.0,-100.00,SSW,205,5.0,9.0,65,0.00,,,-99.99,,2013-01-16 04:42:00,
2013-01-15 22:52:00,20.0,11.0,-100.00,South,190,5.0,7.0,68,0.00,,,-99.99,,2013-01-16 04:52:00,
2013-01-15 23:12:00,20.0,11.0,-100.00,South,190,5.0,7.0,68,0.00,,,-99.99,,2013-01-16 05:12:00,
2013-01-15 23:22:00,20.0,11.0,-100.00,South,190,5.0,7.0,68,0.00,,,-99.99,,2013-01-16 05:22:00,
2013-01-15 23:32:00,20.0,11.0,-100.00,South,190,5.0,7.0,68,0.00,,,-99.99,,2013-01-16 05:32:00,
2013-01-15 23:42:00,20.0,11.0,-100.00,South,190,5.0,7.0,68,0.00,,,-99.99,,2013-01-16 05:42:00,